createdAt,value
2018-08-13T00:01:17.682Z,96.20
2018-08-13T00:03:45.331Z,96.80
2018-08-13T00:08:32.282Z,97.10
2018-08-13T00:10:59.986Z,97.00
2018-08-13T00:18:22.771Z,96.20
2018-08-13T00:23:18.024Z,97.00
2018-08-13T00:25:45.620Z,97.50
2018-08-13T00:28:13.268Z,97.40
2018-08-13T00:30:40.961Z,96.90
2018-08-13T00:33:09.911Z,96.50
2018-08-13T00:35:37.555Z,96.60
2018-08-13T00:38:05.372Z,96.70
2018-08-13T00:40:32.946Z,96.90
2018-08-13T00:43:00.696Z,96.80
2018-08-13T00:45:28.425Z,96.90
2018-08-13T00:47:56.111Z,96.70
2018-08-13T00:50:23.775Z,96.50
2018-08-13T00:52:51.452Z,96.30
2018-08-13T00:55:19.175Z,96.30
2018-08-13T01:00:18.590Z,96.10
2018-08-13T01:02:46.754Z,96.30
2018-08-13T01:05:15.604Z,96.00
2018-08-13T01:07:43.492Z,95.90
2018-08-13T01:10:14.617Z,96.00
2018-08-13T01:12:42.712Z,96.20
2018-08-13T01:15:12.064Z,96.40
2018-08-13T01:17:41.231Z,96.80
2018-08-13T01:20:10.638Z,97.20
2018-08-13T01:22:38.361Z,97.60
2018-08-13T01:25:07.253Z,98.00
2018-08-13T01:30:02.516Z,98.50
2018-08-13T01:32:30.656Z,98.70
2018-08-13T01:34:58.525Z,98.90
2018-08-13T01:37:27.060Z,99.20
2018-08-13T01:39:55.191Z,98.90
2018-08-13T01:42:23.625Z,98.80
2018-08-13T01:44:51.302Z,99.10
2018-08-13T01:47:19.026Z,99.00
2018-08-13T01:49:46.865Z,98.90
2018-08-13T01:52:14.845Z,98.40
2018-08-13T01:54:42.420Z,98.40
2018-08-13T01:57:10.047Z,98.20
2018-08-13T01:59:37.891Z,98.10
2018-08-13T02:02:05.626Z,98.00
2018-08-13T02:04:33.280Z,97.60
2018-08-13T02:07:01.018Z,97.80
2018-08-13T02:09:32.520Z,98.10
2018-08-13T02:12:00.696Z,98.60
2018-08-13T02:14:28.431Z,99.00
2018-08-13T02:16:56.476Z,99.20
2018-08-13T02:19:24.190Z,99.60
2018-08-13T02:21:51.831Z,99.50
2018-08-13T02:24:19.508Z,99.40
2018-08-13T02:26:47.271Z,99.30
2018-08-13T02:29:14.931Z,99.10
2018-08-13T02:31:42.592Z,99.40
2018-08-13T02:34:10.214Z,99.90
2018-08-13T02:36:37.815Z,99.90
2018-08-13T02:39:07.450Z,99.90
2018-08-13T02:44:03.586Z,99.90
2018-08-13T02:46:31.495Z,99.90
2018-08-13T02:48:59.106Z,99.90
2018-08-13T02:51:26.746Z,99.90
2018-08-13T02:53:54.421Z,99.90
2018-08-13T02:56:22.046Z,99.90
2018-08-13T02:58:49.668Z,99.90
2018-08-13T03:01:17.286Z,99.90
2018-08-13T03:03:44.896Z,99.90
2018-08-13T03:08:40.027Z,99.00
2018-08-13T03:11:07.731Z,99.20
2018-08-13T03:13:35.342Z,99.50
2018-08-13T03:16:03.096Z,99.90
2018-08-13T03:20:58.299Z,99.90
2018-08-13T03:23:25.916Z,99.90
2018-08-13T03:25:53.596Z,99.70
2018-08-13T03:28:21.276Z,99.80
2018-08-13T03:30:48.914Z,99.90
2018-08-13T03:33:16.546Z,99.90
2018-08-13T03:35:44.198Z,99.90
2018-08-13T03:38:11.825Z,99.90
2018-08-13T03:43:07.060Z,99.90
2018-08-13T03:45:34.751Z,99.90
2018-08-13T03:48:02.506Z,99.90
2018-08-13T03:50:30.171Z,99.90
2018-08-13T03:52:57.797Z,99.90
2018-08-13T03:55:25.412Z,99.90
2018-08-13T03:57:53.027Z,99.90
2018-08-13T04:00:20.652Z,99.90
2018-08-13T04:02:48.352Z,99.90
2018-08-13T04:07:43.612Z,99.90
2018-08-13T04:10:12.128Z,99.90
2018-08-13T04:12:42.877Z,99.90
2018-08-13T04:15:12.199Z,99.90
2018-08-13T04:17:40.011Z,99.90
2018-08-13T04:20:09.296Z,99.90
2018-08-13T04:22:36.960Z,99.90
2018-08-13T04:25:05.833Z,99.90
2018-08-13T04:27:33.541Z,99.90
2018-08-13T04:30:01.258Z,99.30
2018-08-13T04:32:28.883Z,99.50
2018-08-13T04:34:56.590Z,99.60
2018-08-13T04:37:24.208Z,99.90
2018-08-13T04:42:19.332Z,99.90
2018-08-13T04:44:46.956Z,99.90
2018-08-13T04:47:14.602Z,99.90
2018-08-13T04:49:42.221Z,99.90
2018-08-13T04:52:09.973Z,99.90
2018-08-13T05:07:37.107Z,99.90
2018-08-13T05:10:05.899Z,99.90
2018-08-13T05:12:33.529Z,99.90
2018-08-13T05:15:01.217Z,99.90
2018-08-13T05:17:28.827Z,99.90
2018-08-13T05:19:56.443Z,99.90
2018-08-13T05:22:24.044Z,99.90
2018-08-13T05:27:19.228Z,99.90
2018-08-13T05:29:46.857Z,99.90
2018-08-13T05:32:14.507Z,99.90
2018-08-13T05:34:42.115Z,99.90
2018-08-13T05:39:37.224Z,99.90
2018-08-13T05:42:04.873Z,99.90
2018-08-13T05:44:32.521Z,99.10
2018-08-13T05:47:00.188Z,97.90
2018-08-13T05:49:27.848Z,97.80
2018-08-13T05:51:55.497Z,96.40
2018-08-13T05:54:23.124Z,96.00
2018-08-13T05:56:50.768Z,95.40
2018-08-13T05:59:18.417Z,95.10
2018-08-13T06:01:46.066Z,94.20
2018-08-13T06:04:13.728Z,93.70
2018-08-13T06:06:41.406Z,93.30
2018-08-13T06:09:10.861Z,91.60
2018-08-13T06:11:38.597Z,90.70
2018-08-13T06:14:06.602Z,90.80
2018-08-13T06:16:34.228Z,90.60
2018-08-13T06:21:29.449Z,88.20
2018-08-13T06:26:24.808Z,85.50
2018-08-13T06:28:52.451Z,84.50
2018-08-13T06:31:20.148Z,83.20
2018-08-13T06:33:47.854Z,81.00
2018-08-13T06:38:43.139Z,79.80
2018-08-13T06:41:10.869Z,77.90
2018-08-13T06:43:38.523Z,75.00
2018-08-13T06:46:06.218Z,76.70
2018-08-13T06:48:33.976Z,73.70
2018-08-13T06:51:01.734Z,67.80
2018-08-13T06:53:29.373Z,64.80
2018-08-13T06:55:57.057Z,64.10
2018-08-13T06:58:24.682Z,64.70
2018-08-13T07:00:52.462Z,61.30
2018-08-13T07:03:20.138Z,59.40
2018-08-13T07:05:47.825Z,59.40
2018-08-13T07:08:15.503Z,60.70
2018-08-13T07:10:43.214Z,60.40
2018-08-13T07:13:10.865Z,59.90
2018-08-13T07:15:38.584Z,60.90
2018-08-13T07:18:06.278Z,61.20
2018-08-13T07:20:34.023Z,61.30
2018-08-13T07:23:01.780Z,61.20
2018-08-13T07:25:29.487Z,63.20
2018-08-13T07:27:57.201Z,63.80
2018-08-13T07:30:24.872Z,64.30
2018-08-13T07:32:52.608Z,65.30
2018-08-13T07:35:20.343Z,67.10
2018-08-13T07:37:48.088Z,67.00
2018-08-13T07:40:16.940Z,67.70
2018-08-13T07:42:45.026Z,68.20
2018-08-13T07:45:12.761Z,67.10
2018-08-13T07:47:40.582Z,65.50
2018-08-13T07:50:10.560Z,65.50
2018-08-13T07:52:38.389Z,62.80
2018-08-13T07:55:06.419Z,64.30
2018-08-13T07:57:34.259Z,62.80
2018-08-13T08:00:02.074Z,63.40
2018-08-13T08:02:29.792Z,64.70
2018-08-13T08:04:57.564Z,63.90
2018-08-13T08:07:25.360Z,65.10
2018-08-13T08:09:53.050Z,65.00
2018-08-13T08:12:20.788Z,66.00
2018-08-13T08:14:49.454Z,66.10
2018-08-13T08:17:18.213Z,66.80
2018-08-13T08:19:46.033Z,67.30
2018-08-13T08:22:13.863Z,68.30
2018-08-13T08:27:09.410Z,68.90
2018-08-13T08:29:38.945Z,69.80
2018-08-13T08:32:07.159Z,70.30
2018-08-13T08:34:35.151Z,71.30
2018-08-13T08:37:02.933Z,72.40
2018-08-13T08:39:58.967Z,72.70
2018-08-13T08:42:42.647Z,73.70
2018-08-13T08:45:39.901Z,75.20
2018-08-13T08:48:32.980Z,75.60
2018-08-13T08:51:27.629Z,74.60
2018-08-13T08:54:19.193Z,74.80
2018-08-13T08:57:11.825Z,75.70
2018-08-13T09:00:05.684Z,75.90
2018-08-13T09:02:58.382Z,77.50
2018-08-13T09:05:26.999Z,77.00
2018-08-13T09:08:12.313Z,77.80
2018-08-13T09:10:43.850Z,78.60
2018-08-13T09:15:41.817Z,80.00
2018-08-13T09:20:54.000Z,82.90
2018-08-13T09:23:33.083Z,81.40
2018-08-13T09:26:12.123Z,81.90
2018-08-13T09:28:51.062Z,83.30
2018-08-13T09:31:28.983Z,83.80
2018-08-13T09:34:41.934Z,84.30
2018-08-13T09:37:09.899Z,85.50
2018-08-13T09:39:37.601Z,85.70
2018-08-13T09:42:05.664Z,86.20
2018-08-13T09:44:33.341Z,87.10
2018-08-13T09:47:01.227Z,88.00
2018-08-13T09:51:56.779Z,89.60
2018-08-13T09:54:24.483Z,90.30
2018-08-13T09:56:52.204Z,90.30
2018-08-13T09:59:19.965Z,90.60
2018-08-13T10:01:47.700Z,90.70
2018-08-13T10:04:24.756Z,90.60
2018-08-13T10:06:52.430Z,90.70
2018-08-13T10:09:20.166Z,91.20
2018-08-13T10:11:47.782Z,91.10
2018-08-13T10:14:15.545Z,90.90
2018-08-13T10:19:10.837Z,92.30
2018-08-13T10:21:38.541Z,92.20
2018-08-13T10:24:06.293Z,92.30
2018-08-13T10:26:34.054Z,92.90
2018-08-13T10:29:01.768Z,92.30
2018-08-13T10:31:29.512Z,92.30
2018-08-13T10:33:57.503Z,92.30
2018-08-13T10:36:25.254Z,90.00
2018-08-13T10:38:52.984Z,89.20
2018-08-13T10:41:20.740Z,90.00
2018-08-13T10:43:48.399Z,86.80
2018-08-13T10:46:16.108Z,84.40
2018-08-13T10:48:43.786Z,84.50
2018-08-13T10:51:11.569Z,82.90
2018-08-13T10:53:39.264Z,81.90
2018-08-13T10:56:07.106Z,81.70
2018-08-13T10:58:34.824Z,84.50
2018-08-13T11:01:02.590Z,86.40
2018-08-13T11:03:30.474Z,86.20
2018-08-13T11:05:58.261Z,87.10
2018-08-13T11:10:53.515Z,88.40
2018-08-13T11:13:21.231Z,88.50
2018-08-13T11:15:48.978Z,90.50
2018-08-13T11:18:16.674Z,90.50
2018-08-13T11:20:44.346Z,91.00
2018-08-13T11:23:12.100Z,90.70
2018-08-13T11:25:39.888Z,90.20
2018-08-13T11:30:35.175Z,90.80
2018-08-13T11:35:30.519Z,93.00
2018-08-13T11:37:58.275Z,93.60
2018-08-13T11:40:25.944Z,93.70
2018-08-13T11:42:53.618Z,93.20
2018-08-13T11:47:48.875Z,94.70
2018-08-13T11:50:18.718Z,94.60
2018-08-13T11:52:47.578Z,95.60
2018-08-13T11:55:15.750Z,95.70
2018-08-13T11:57:43.500Z,95.60
2018-08-13T12:00:12.059Z,96.50
2018-08-13T12:02:39.886Z,95.90
2018-08-13T12:05:10.141Z,95.60
2018-08-13T12:07:37.928Z,94.60
2018-08-13T12:12:33.606Z,94.40
2018-08-13T12:15:01.862Z,93.60
2018-08-13T12:17:29.965Z,92.10
2018-08-13T12:19:57.661Z,91.50
2018-08-13T12:22:25.323Z,89.90
2018-08-13T12:24:53.006Z,88.80
2018-08-13T12:27:20.666Z,87.80
2018-08-13T12:29:48.405Z,82.40
2018-08-13T12:32:16.360Z,79.50
2018-08-13T12:34:44.063Z,81.40
2018-08-13T12:37:12.691Z,81.10
2018-08-13T12:39:40.449Z,79.60
2018-08-13T12:42:09.139Z,78.70
2018-08-13T12:47:06.025Z,77.20
2018-08-13T12:49:33.729Z,77.30
2018-08-13T12:52:01.551Z,77.80
2018-08-13T12:54:29.350Z,77.70
2018-08-13T12:56:57.159Z,79.00
2018-08-13T12:59:24.850Z,80.60
2018-08-13T13:01:52.618Z,82.20
2018-08-13T13:04:20.338Z,82.90
2018-08-13T13:06:48.136Z,84.50
2018-08-13T13:11:43.425Z,84.50
2018-08-13T13:14:11.248Z,83.90
2018-08-13T13:16:38.955Z,83.90
2018-08-13T13:19:07.066Z,82.80
2018-08-13T13:21:34.759Z,84.00
2018-08-13T13:24:03.344Z,82.90
2018-08-13T13:26:30.971Z,80.80
2018-08-13T13:28:58.740Z,79.40
2018-08-13T13:31:26.456Z,78.80
2018-08-13T13:33:54.208Z,74.80
2018-08-13T13:36:21.865Z,71.00
2018-08-13T13:41:17.204Z,65.90
2018-08-13T13:43:44.934Z,61.10
2018-08-13T13:46:12.717Z,59.00
2018-08-13T13:48:40.410Z,58.40
2018-08-13T13:51:08.235Z,58.80
2018-08-13T13:53:35.923Z,57.30
2018-08-13T13:56:03.749Z,56.40
2018-08-13T13:58:31.435Z,56.80
2018-08-13T14:01:00.151Z,58.10
2018-08-13T14:05:55.650Z,62.10
2018-08-13T14:08:23.364Z,63.50
2018-08-13T14:10:55.235Z,65.30
2018-08-13T14:13:25.745Z,66.60
2018-08-13T14:15:53.505Z,68.00
2018-08-13T14:18:21.316Z,67.50
2018-08-13T14:20:49.056Z,69.00
2018-08-13T14:23:16.835Z,70.00
2018-08-13T14:25:44.652Z,69.50
2018-08-13T14:28:12.909Z,70.60
2018-08-13T14:33:08.962Z,70.30
2018-08-13T14:35:36.744Z,69.80
2018-08-13T14:38:04.547Z,69.60
2018-08-13T14:40:32.327Z,71.40
2018-08-13T14:43:00.042Z,71.90
2018-08-13T14:52:50.476Z,72.70
2018-08-13T14:57:46.520Z,75.90
2018-08-13T15:00:20.891Z,78.20
2018-08-13T15:07:45.280Z,78.30
2018-08-13T15:10:14.808Z,78.70
2018-08-13T15:12:43.905Z,76.70
2018-08-13T15:22:40.080Z,80.90
2018-08-13T15:25:07.815Z,81.70
2018-08-13T15:27:36.797Z,82.40
2018-08-13T15:30:07.139Z,84.10
2018-08-13T15:32:34.889Z,86.00
2018-08-13T15:35:02.667Z,87.40
2018-08-13T15:37:30.363Z,89.10
2018-08-13T15:39:58.057Z,90.00
2018-08-13T15:42:25.851Z,90.40
2018-08-13T15:44:53.545Z,90.70
2018-08-13T15:47:21.245Z,90.90
2018-08-13T15:49:48.916Z,91.50
2018-08-13T15:54:44.209Z,93.10
2018-08-13T15:57:12.135Z,96.00
2018-08-13T15:59:39.890Z,99.90
2018-08-13T16:04:35.199Z,99.90
2018-08-13T16:07:05.675Z,99.90
2018-08-13T16:09:33.428Z,99.90
2018-08-13T16:12:01.180Z,99.90
2018-08-13T16:21:52.226Z,99.90
2018-08-13T16:24:19.931Z,99.90
2018-08-13T16:29:15.349Z,99.90
2018-08-13T16:31:43.060Z,99.90
2018-08-13T16:34:10.867Z,99.90
2018-08-13T16:41:35.360Z,99.90
2018-08-13T16:44:03.176Z,99.90
2018-08-13T16:46:31.588Z,99.90
2018-08-13T16:48:59.336Z,99.90
2018-08-13T16:51:27.086Z,99.90
2018-08-13T16:53:54.824Z,99.90
2018-08-13T16:56:22.939Z,99.90
2018-08-13T16:58:50.721Z,99.90
2018-08-13T17:01:18.484Z,99.90
2018-08-13T17:03:46.205Z,99.90
2018-08-13T17:06:14.420Z,99.90
2018-08-13T17:08:42.160Z,99.90
2018-08-13T17:11:09.864Z,99.90
2018-08-13T17:13:37.578Z,99.90
2018-08-13T17:16:06.612Z,99.90
2018-08-13T17:18:34.307Z,99.90
2018-08-13T17:34:01.537Z,99.90
2018-08-13T17:36:29.274Z,99.90
2018-08-13T17:38:56.972Z,99.90
2018-08-13T17:41:24.735Z,99.90
2018-08-13T17:43:52.446Z,99.90
2018-08-13T17:46:20.100Z,99.90
2018-08-13T17:48:47.865Z,99.90
2018-08-13T17:56:10.781Z,99.90
2018-08-13T17:58:38.491Z,99.90
2018-08-13T18:01:06.472Z,99.90
2018-08-13T18:06:01.827Z,99.90
2018-08-13T18:08:29.528Z,99.90
2018-08-13T18:10:57.219Z,99.90
2018-08-13T18:13:24.877Z,99.90
2018-08-13T18:15:52.650Z,99.90
2018-08-13T18:18:20.336Z,99.90
2018-08-13T18:20:47.985Z,99.90
2018-08-13T18:23:15.631Z,99.90
2018-08-13T18:38:37.797Z,99.90
2018-08-13T18:41:05.497Z,99.90
2018-08-13T18:43:33.292Z,99.90
2018-08-13T18:46:00.991Z,99.90
2018-08-13T18:48:28.938Z,99.90
2018-08-13T18:50:56.686Z,99.90
2018-08-13T18:53:24.417Z,99.90
2018-08-13T18:55:52.182Z,99.90
2018-08-13T19:00:50.890Z,99.90
2018-08-13T19:03:19.300Z,99.90
2018-08-13T19:05:47.549Z,99.90
2018-08-13T19:08:16.633Z,99.90
2018-08-13T19:10:44.637Z,99.90
2018-08-13T19:13:12.971Z,99.90
2018-08-13T19:15:40.674Z,99.90
2018-08-13T19:18:09.049Z,99.90
2018-08-13T19:20:38.466Z,99.90
2018-08-13T19:23:06.868Z,99.90
2018-08-13T19:25:35.529Z,99.90
2018-08-13T19:30:31.020Z,99.90
2018-08-13T19:32:59.641Z,99.90
2018-08-13T19:35:27.860Z,99.90
2018-08-13T19:37:55.723Z,99.90
2018-08-13T19:40:25.368Z,99.90
2018-08-13T19:42:53.696Z,99.90
2018-08-13T19:45:23.319Z,99.90
2018-08-13T19:47:52.727Z,99.90
2018-08-13T19:50:20.926Z,99.90
2018-08-13T19:52:50.027Z,99.90
2018-08-13T19:55:18.943Z,99.90
2018-08-13T20:00:18.642Z,99.90
2018-08-13T20:02:49.983Z,99.90
2018-08-13T20:05:19.418Z,99.90
2018-08-13T20:07:47.846Z,99.90
2018-08-13T20:10:16.899Z,99.90
2018-08-13T20:12:45.890Z,99.90
2018-08-13T20:15:14.616Z,99.90
2018-08-13T20:17:44.116Z,99.90
2018-08-13T20:22:42.577Z,99.90
2018-08-13T20:25:12.943Z,99.90
2018-08-13T20:27:40.691Z,99.90
2018-08-13T20:30:12.807Z,99.90
2018-08-13T20:32:41.451Z,99.90
2018-08-13T20:35:09.266Z,99.90
2018-08-13T20:40:09.012Z,99.90
2018-08-13T20:42:37.589Z,99.90
2018-08-13T20:45:09.353Z,99.90
2018-08-13T20:47:37.037Z,99.90
2018-08-13T20:50:08.915Z,99.90
2018-08-13T20:55:08.941Z,99.90
2018-08-13T20:57:37.548Z,99.90
2018-08-13T21:00:09.470Z,99.90
2018-08-13T21:02:39.182Z,99.90
2018-08-13T21:05:07.827Z,99.90
2018-08-13T21:07:36.525Z,99.90
2018-08-13T21:10:06.051Z,99.90
2018-08-13T21:12:34.296Z,99.90
2018-08-13T21:15:05.226Z,99.90
2018-08-13T21:17:34.100Z,99.90
2018-08-13T21:20:01.831Z,99.90
2018-08-13T21:22:30.475Z,99.90
2018-08-13T21:24:58.747Z,99.90
2018-08-13T21:27:26.463Z,99.90
2018-08-13T21:29:54.670Z,99.90
2018-08-13T21:32:22.492Z,99.90
2018-08-13T21:34:50.248Z,99.90
2018-08-13T21:37:19.057Z,99.90
2018-08-13T21:42:15.687Z,99.90
2018-08-13T21:47:12.151Z,99.90
2018-08-13T21:49:40.823Z,99.90
2018-08-13T21:52:09.104Z,99.90
2018-08-13T21:54:37.303Z,99.90
2018-08-13T21:57:05.534Z,99.90
2018-08-13T21:59:33.221Z,99.90
2018-08-13T22:02:00.943Z,99.90
2018-08-13T22:04:28.566Z,99.90
2018-08-13T22:06:56.218Z,99.90
2018-08-13T22:09:23.959Z,99.90
2018-08-13T22:11:51.578Z,99.90
2018-08-13T22:14:19.259Z,99.90
2018-08-13T22:16:46.922Z,99.90
2018-08-13T22:19:14.626Z,99.90
2018-08-13T22:21:42.317Z,99.90
2018-08-13T22:24:21.281Z,99.90
2018-08-13T22:29:16.591Z,99.90
2018-08-13T22:31:44.277Z,99.90
2018-08-13T22:34:11.978Z,99.90
2018-08-13T22:41:35.266Z,99.90
2018-08-13T22:44:02.945Z,99.90
2018-08-13T22:46:30.627Z,99.90
2018-08-13T22:48:58.253Z,99.90
2018-08-13T22:51:25.931Z,99.90
2018-08-13T22:53:53.612Z,99.90
2018-08-13T22:56:21.281Z,99.90
2018-08-13T22:58:48.975Z,99.90
2018-08-13T23:01:16.647Z,99.90
2018-08-13T23:03:44.357Z,99.90
2018-08-13T23:06:12.033Z,99.90
2018-08-13T23:08:39.774Z,99.90
2018-08-13T23:11:07.388Z,99.90
2018-08-13T23:16:02.641Z,99.90
2018-08-13T23:18:30.330Z,99.90
2018-08-13T23:20:57.991Z,99.90
2018-08-13T23:23:25.616Z,99.90
2018-08-13T23:25:53.345Z,99.90
2018-08-13T23:28:20.960Z,99.90
2018-08-13T23:33:16.226Z,99.90
2018-08-13T23:35:44.543Z,99.90
2018-08-13T23:38:12.166Z,99.90
2018-08-13T23:40:39.858Z,99.90
2018-08-13T23:43:07.523Z,99.90
2018-08-13T23:45:35.187Z,99.90
2018-08-13T23:48:02.858Z,99.90
2018-08-13T23:50:30.480Z,99.90
2018-08-13T23:52:59.493Z,99.90
2018-08-13T23:55:31.082Z,99.90
2018-08-13T23:57:59.165Z,99.90
